sensor_id;sensor_type;location;lat;lon;timestamp;P1;durP1;ratioP1;P2;durP2;ratioP2
32198;SDS011;19221;42.656;21.156;2022-09-09T00:01:33;20.00;;;14.98;;
32198;SDS011;19221;42.656;21.156;2022-09-09T00:04:09;25.38;;;14.07;;
32198;SDS011;19221;42.656;21.156;2022-09-09T00:09:16;18.98;;;12.93;;
32198;SDS011;19221;42.656;21.156;2022-09-09T00:11:43;18.73;;;12.25;;
32198;SDS011;19221;42.656;21.156;2022-09-09T00:14:17;20.13;;;11.65;;
32198;SDS011;19221;42.656;21.156;2022-09-09T00:16:45;17.77;;;12.82;;
32198;SDS011;19221;42.656;21.156;2022-09-09T00:21:49;18.30;;;14.75;;
32198;SDS011;19221;42.656;21.156;2022-09-09T00:24:24;20.92;;;13.93;;
32198;SDS011;19221;42.656;21.156;2022-09-09T00:26:53;20.08;;;12.95;;
32198;SDS011;19221;42.656;21.156;2022-09-09T00:32:00;27.75;;;12.90;;
32198;SDS011;19221;42.656;21.156;2022-09-09T00:34:30;21.90;;;14.63;;
32198;SDS011;19221;42.656;21.156;2022-09-09T00:36:56;17.75;;;12.98;;
32198;SDS011;19221;42.656;21.156;2022-09-09T00:39:36;18.05;;;12.45;;
32198;SDS011;19221;42.656;21.156;2022-09-09T00:44:38;14.35;;;11.75;;
32198;SDS011;19221;42.656;21.156;2022-09-09T00:49:43;17.85;;;13.93;;
32198;SDS011;19221;42.656;21.156;2022-09-09T00:54:45;19.13;;;13.25;;
32198;SDS011;19221;42.656;21.156;2022-09-09T00:59:48;26.98;;;15.13;;
32198;SDS011;19221;42.656;21.156;2022-09-09T01:04:58;20.53;;;11.50;;
32198;SDS011;19221;42.656;21.156;2022-09-09T01:07:26;18.67;;;11.27;;
32198;SDS011;19221;42.656;21.156;2022-09-09T01:09:56;15.68;;;12.13;;
32198;SDS011;19221;42.656;21.156;2022-09-09T01:12:34;15.57;;;11.02;;
32198;SDS011;19221;42.656;21.156;2022-09-09T01:15:03;18.00;;;13.02;;
32198;SDS011;19221;42.656;21.156;2022-09-09T01:20:26;19.65;;;12.18;;
32198;SDS011;19221;42.656;21.156;2022-09-09T01:25:26;19.35;;;13.07;;
32198;SDS011;19221;42.656;21.156;2022-09-09T01:27:56;18.48;;;12.00;;
32198;SDS011;19221;42.656;21.156;2022-09-09T01:30:23;21.48;;;14.65;;
32198;SDS011;19221;42.656;21.156;2022-09-09T01:32:52;19.75;;;12.85;;
32198;SDS011;19221;42.656;21.156;2022-09-09T01:35:43;19.58;;;13.32;;
32198;SDS011;19221;42.656;21.156;2022-09-09T01:38:10;22.00;;;15.93;;
32198;SDS011;19221;42.656;21.156;2022-09-09T01:40:36;23.23;;;14.00;;
32198;SDS011;19221;42.656;21.156;2022-09-09T01:43:02;16.80;;;12.13;;
32198;SDS011;19221;42.656;21.156;2022-09-09T01:45:28;22.48;;;13.52;;
32198;SDS011;19221;42.656;21.156;2022-09-09T01:47:54;22.08;;;12.88;;
32198;SDS011;19221;42.656;21.156;2022-09-09T01:50:20;20.23;;;13.43;;
32198;SDS011;19221;42.656;21.156;2022-09-09T01:52:47;17.00;;;12.27;;
32198;SDS011;19221;42.656;21.156;2022-09-09T01:55:14;15.40;;;11.90;;
32198;SDS011;19221;42.656;21.156;2022-09-09T01:57:47;18.00;;;15.13;;
32198;SDS011;19221;42.656;21.156;2022-09-09T02:00:14;22.00;;;13.95;;
32198;SDS011;19221;42.656;21.156;2022-09-09T02:08:03;25.30;;;16.13;;
32198;SDS011;19221;42.656;21.156;2022-09-09T02:10:32;24.25;;;16.13;;
32198;SDS011;19221;42.656;21.156;2022-09-09T02:13:04;23.80;;;17.83;;
32198;SDS011;19221;42.656;21.156;2022-09-09T02:21:02;20.48;;;15.18;;
32198;SDS011;19221;42.656;21.156;2022-09-09T02:23:28;24.02;;;15.15;;
32198;SDS011;19221;42.656;21.156;2022-09-09T02:25:55;20.48;;;15.25;;
32198;SDS011;19221;42.656;21.156;2022-09-09T02:28:23;18.30;;;13.40;;
32198;SDS011;19221;42.656;21.156;2022-09-09T02:30:50;21.98;;;12.15;;
32198;SDS011;19221;42.656;21.156;2022-09-09T02:33:27;18.17;;;11.20;;
32198;SDS011;19221;42.656;21.156;2022-09-09T02:35:53;14.40;;;11.55;;
32198;SDS011;19221;42.656;21.156;2022-09-09T02:38:22;20.80;;;15.07;;
32198;SDS011;19221;42.656;21.156;2022-09-09T02:40:51;14.82;;;11.27;;
32198;SDS011;19221;42.656;21.156;2022-09-09T02:43:17;14.10;;;11.80;;
32198;SDS011;19221;42.656;21.156;2022-09-09T02:53:40;14.15;;;11.10;;
32198;SDS011;19221;42.656;21.156;2022-09-09T02:56:09;13.60;;;10.85;;
32198;SDS011;19221;42.656;21.156;2022-09-09T02:58:38;14.88;;;12.13;;
32198;SDS011;19221;42.656;21.156;2022-09-09T03:01:05;19.10;;;13.18;;
32198;SDS011;19221;42.656;21.156;2022-09-09T03:03:31;17.00;;;13.55;;
32198;SDS011;19221;42.656;21.156;2022-09-09T03:05:58;14.15;;;11.25;;
32198;SDS011;19221;42.656;21.156;2022-09-09T03:08:25;15.98;;;11.45;;
32198;SDS011;19221;42.656;21.156;2022-09-09T03:10:50;17.30;;;12.07;;
32198;SDS011;19221;42.656;21.156;2022-09-09T03:13:19;17.20;;;13.48;;
32198;SDS011;19221;42.656;21.156;2022-09-09T03:15:45;21.65;;;11.43;;
32198;SDS011;19221;42.656;21.156;2022-09-09T03:18:10;15.18;;;11.48;;
32198;SDS011;19221;42.656;21.156;2022-09-09T03:20:36;15.93;;;11.77;;
32198;SDS011;19221;42.656;21.156;2022-09-09T03:23:02;21.48;;;15.52;;
32198;SDS011;19221;42.656;21.156;2022-09-09T03:25:28;17.58;;;14.63;;
32198;SDS011;19221;42.656;21.156;2022-09-09T03:27:54;19.38;;;11.13;;
32198;SDS011;19221;42.656;21.156;2022-09-09T03:30:21;19.88;;;13.45;;
32198;SDS011;19221;42.656;21.156;2022-09-09T03:32:46;22.90;;;15.82;;
32198;SDS011;19221;42.656;21.156;2022-09-09T03:35:12;15.73;;;11.98;;
32198;SDS011;19221;42.656;21.156;2022-09-09T03:37:38;27.63;;;13.82;;
32198;SDS011;19221;42.656;21.156;2022-09-09T03:40:04;17.85;;;13.13;;
32198;SDS011;19221;42.656;21.156;2022-09-09T03:42:30;21.00;;;14.23;;
32198;SDS011;19221;42.656;21.156;2022-09-09T03:44:56;22.85;;;18.02;;
32198;SDS011;19221;42.656;21.156;2022-09-09T03:47:23;23.63;;;18.55;;
32198;SDS011;19221;42.656;21.156;2022-09-09T03:49:49;26.10;;;19.13;;
32198;SDS011;19221;42.656;21.156;2022-09-09T03:52:15;24.73;;;16.67;;
32198;SDS011;19221;42.656;21.156;2022-09-09T03:54:40;23.52;;;17.23;;
32198;SDS011;19221;42.656;21.156;2022-09-09T03:57:10;16.90;;;14.10;;
32198;SDS011;19221;42.656;21.156;2022-09-09T03:59:36;24.05;;;18.92;;
32198;SDS011;19221;42.656;21.156;2022-09-09T04:02:02;22.92;;;17.70;;
32198;SDS011;19221;42.656;21.156;2022-09-09T04:04:28;21.13;;;16.50;;
32198;SDS011;19221;42.656;21.156;2022-09-09T04:06:53;17.05;;;13.80;;
32198;SDS011;19221;42.656;21.156;2022-09-09T04:09:19;17.83;;;11.70;;
32198;SDS011;19221;42.656;21.156;2022-09-09T04:11:45;17.05;;;13.07;;
32198;SDS011;19221;42.656;21.156;2022-09-09T04:14:11;21.55;;;13.68;;
32198;SDS011;19221;42.656;21.156;2022-09-09T04:16:38;20.13;;;16.75;;
32198;SDS011;19221;42.656;21.156;2022-09-09T04:19:04;23.15;;;14.25;;
32198;SDS011;19221;42.656;21.156;2022-09-09T04:21:30;18.60;;;14.77;;
32198;SDS011;19221;42.656;21.156;2022-09-09T04:23:56;24.52;;;12.88;;
32198;SDS011;19221;42.656;21.156;2022-09-09T04:26:22;19.35;;;14.43;;
32198;SDS011;19221;42.656;21.156;2022-09-09T04:28:47;30.20;;;16.38;;
32198;SDS011;19221;42.656;21.156;2022-09-09T04:31:22;22.98;;;16.02;;
32198;SDS011;19221;42.656;21.156;2022-09-09T04:33:49;23.80;;;14.20;;
32198;SDS011;19221;42.656;21.156;2022-09-09T04:36:15;19.77;;;15.40;;
32198;SDS011;19221;42.656;21.156;2022-09-09T04:38:41;19.17;;;13.57;;
32198;SDS011;19221;42.656;21.156;2022-09-09T04:41:07;19.48;;;13.20;;
32198;SDS011;19221;42.656;21.156;2022-09-09T04:43:33;21.70;;;13.85;;
32198;SDS011;19221;42.656;21.156;2022-09-09T04:45:58;23.33;;;13.57;;
32198;SDS011;19221;42.656;21.156;2022-09-09T04:48:24;20.73;;;14.13;;
32198;SDS011;19221;42.656;21.156;2022-09-09T04:50:54;18.23;;;13.82;;
32198;SDS011;19221;42.656;21.156;2022-09-09T04:53:20;21.80;;;14.15;;
32198;SDS011;19221;42.656;21.156;2022-09-09T04:55:46;19.55;;;12.80;;
32198;SDS011;19221;42.656;21.156;2022-09-09T04:58:11;21.17;;;13.10;;
32198;SDS011;19221;42.656;21.156;2022-09-09T05:01:02;25.30;;;15.40;;
32198;SDS011;19221;42.656;21.156;2022-09-09T05:03:28;31.00;;;18.87;;
32198;SDS011;19221;42.656;21.156;2022-09-09T05:05:54;24.23;;;16.13;;
32198;SDS011;19221;42.656;21.156;2022-09-09T05:08:19;27.27;;;17.00;;
32198;SDS011;19221;42.656;21.156;2022-09-09T05:10:46;28.90;;;18.58;;
32198;SDS011;19221;42.656;21.156;2022-09-09T05:13:11;28.70;;;18.60;;
32198;SDS011;19221;42.656;21.156;2022-09-09T05:15:37;28.83;;;18.55;;
32198;SDS011;19221;42.656;21.156;2022-09-09T05:18:03;26.60;;;16.73;;
32198;SDS011;19221;42.656;21.156;2022-09-09T05:20:29;24.27;;;14.27;;
32198;SDS011;19221;42.656;21.156;2022-09-09T05:22:56;20.98;;;13.85;;
32198;SDS011;19221;42.656;21.156;2022-09-09T05:25:22;22.20;;;16.63;;
32198;SDS011;19221;42.656;21.156;2022-09-09T05:27:51;20.42;;;13.98;;
32198;SDS011;19221;42.656;21.156;2022-09-09T05:30:19;22.85;;;14.98;;
32198;SDS011;19221;42.656;21.156;2022-09-09T05:32:45;66.20;;;47.75;;
32198;SDS011;19221;42.656;21.156;2022-09-09T05:35:10;58.58;;;42.80;;
32198;SDS011;19221;42.656;21.156;2022-09-09T05:37:36;57.30;;;42.38;;
32198;SDS011;19221;42.656;21.156;2022-09-09T05:40:02;50.33;;;34.85;;
32198;SDS011;19221;42.656;21.156;2022-09-09T05:42:31;38.35;;;25.35;;
32198;SDS011;19221;42.656;21.156;2022-09-09T05:44:57;37.55;;;29.65;;
32198;SDS011;19221;42.656;21.156;2022-09-09T05:47:23;38.80;;;27.85;;
32198;SDS011;19221;42.656;21.156;2022-09-09T05:49:49;28.50;;;20.63;;
32198;SDS011;19221;42.656;21.156;2022-09-09T05:52:15;35.30;;;23.27;;
32198;SDS011;19221;42.656;21.156;2022-09-09T05:54:40;20.58;;;13.50;;
32198;SDS011;19221;42.656;21.156;2022-09-09T05:57:08;25.52;;;13.27;;
32198;SDS011;19221;42.656;21.156;2022-09-09T06:02:36;21.05;;;16.77;;
32198;SDS011;19221;42.656;21.156;2022-09-09T06:05:04;31.33;;;20.65;;
32198;SDS011;19221;42.656;21.156;2022-09-09T06:07:30;23.25;;;14.90;;
32198;SDS011;19221;42.656;21.156;2022-09-09T06:09:56;38.72;;;20.55;;
32198;SDS011;19221;42.656;21.156;2022-09-09T06:12:21;24.70;;;18.63;;
32198;SDS011;19221;42.656;21.156;2022-09-09T06:14:47;34.22;;;21.35;;
32198;SDS011;19221;42.656;21.156;2022-09-09T06:17:13;34.30;;;18.65;;
32198;SDS011;19221;42.656;21.156;2022-09-09T06:19:40;26.33;;;18.52;;
32198;SDS011;19221;42.656;21.156;2022-09-09T06:22:05;27.15;;;21.02;;
32198;SDS011;19221;42.656;21.156;2022-09-09T06:24:31;32.05;;;18.25;;
32198;SDS011;19221;42.656;21.156;2022-09-09T06:26:58;25.85;;;18.38;;
32198;SDS011;19221;42.656;21.156;2022-09-09T06:29:24;31.70;;;21.60;;
32198;SDS011;19221;42.656;21.156;2022-09-09T06:31:49;27.63;;;20.50;;
32198;SDS011;19221;42.656;21.156;2022-09-09T06:34:15;31.50;;;23.50;;
32198;SDS011;19221;42.656;21.156;2022-09-09T06:36:41;33.38;;;21.52;;
32198;SDS011;19221;42.656;21.156;2022-09-09T06:39:07;28.17;;;18.25;;
32198;SDS011;19221;42.656;21.156;2022-09-09T06:41:34;67.78;;;24.20;;
32198;SDS011;19221;42.656;21.156;2022-09-09T06:43:59;34.25;;;19.15;;
32198;SDS011;19221;42.656;21.156;2022-09-09T06:46:30;31.60;;;20.42;;
32198;SDS011;19221;42.656;21.156;2022-09-09T06:51:33;35.75;;;23.88;;
32198;SDS011;19221;42.656;21.156;2022-09-09T06:54:00;28.55;;;20.52;;
32198;SDS011;19221;42.656;21.156;2022-09-09T06:56:28;33.85;;;26.50;;
32198;SDS011;19221;42.656;21.156;2022-09-09T06:58:55;38.72;;;23.98;;
32198;SDS011;19221;42.656;21.156;2022-09-09T07:01:22;32.53;;;19.65;;
32198;SDS011;19221;42.656;21.156;2022-09-09T07:03:49;25.60;;;17.48;;
32198;SDS011;19221;42.656;21.156;2022-09-09T07:06:16;31.65;;;19.50;;
32198;SDS011;19221;42.656;21.156;2022-09-09T07:08:42;27.20;;;18.15;;
32198;SDS011;19221;42.656;21.156;2022-09-09T07:11:08;26.80;;;18.05;;
32198;SDS011;19221;42.656;21.156;2022-09-09T07:13:34;25.48;;;18.80;;
32198;SDS011;19221;42.656;21.156;2022-09-09T07:16:08;30.98;;;20.63;;
32198;SDS011;19221;42.656;21.156;2022-09-09T07:18:33;31.33;;;21.77;;
32198;SDS011;19221;42.656;21.156;2022-09-09T07:21:00;35.47;;;21.95;;
32198;SDS011;19221;42.656;21.156;2022-09-09T07:23:27;27.88;;;20.20;;
32198;SDS011;19221;42.656;21.156;2022-09-09T07:25:53;29.65;;;20.33;;
32198;SDS011;19221;42.656;21.156;2022-09-09T07:28:19;26.40;;;19.27;;
32198;SDS011;19221;42.656;21.156;2022-09-09T07:30:59;27.70;;;19.67;;
32198;SDS011;19221;42.656;21.156;2022-09-09T07:33:26;24.23;;;19.30;;
32198;SDS011;19221;42.656;21.156;2022-09-09T07:35:52;25.00;;;17.77;;
32198;SDS011;19221;42.656;21.156;2022-09-09T07:38:18;31.60;;;18.48;;
32198;SDS011;19221;42.656;21.156;2022-09-09T07:40:45;33.88;;;21.17;;
32198;SDS011;19221;42.656;21.156;2022-09-09T07:43:10;29.75;;;21.95;;
32198;SDS011;19221;42.656;21.156;2022-09-09T07:45:37;29.35;;;20.58;;
32198;SDS011;19221;42.656;21.156;2022-09-09T07:48:03;32.88;;;20.38;;
32198;SDS011;19221;42.656;21.156;2022-09-09T07:50:29;27.15;;;17.98;;
32198;SDS011;19221;42.656;21.156;2022-09-09T07:52:55;27.73;;;18.73;;
32198;SDS011;19221;42.656;21.156;2022-09-09T07:55:21;28.48;;;19.58;;
32198;SDS011;19221;42.656;21.156;2022-09-09T07:57:50;25.35;;;17.13;;
32198;SDS011;19221;42.656;21.156;2022-09-09T08:00:16;27.48;;;18.30;;
32198;SDS011;19221;42.656;21.156;2022-09-09T08:02:42;23.52;;;17.27;;
32198;SDS011;19221;42.656;21.156;2022-09-09T08:05:08;27.02;;;19.63;;
32198;SDS011;19221;42.656;21.156;2022-09-09T08:07:46;26.60;;;18.63;;
32198;SDS011;19221;42.656;21.156;2022-09-09T08:10:12;21.67;;;16.83;;
32198;SDS011;19221;42.656;21.156;2022-09-09T08:12:40;23.65;;;16.65;;
32198;SDS011;19221;42.656;21.156;2022-09-09T08:15:05;30.77;;;19.30;;
32198;SDS011;19221;42.656;21.156;2022-09-09T08:17:31;20.30;;;14.40;;
32198;SDS011;19221;42.656;21.156;2022-09-09T08:19:57;30.88;;;21.17;;
32198;SDS011;19221;42.656;21.156;2022-09-09T08:22:23;41.17;;;23.98;;
32198;SDS011;19221;42.656;21.156;2022-09-09T08:24:49;29.80;;;20.40;;
32198;SDS011;19221;42.656;21.156;2022-09-09T08:27:15;28.40;;;19.77;;
32198;SDS011;19221;42.656;21.156;2022-09-09T08:29:41;31.48;;;21.08;;
32198;SDS011;19221;42.656;21.156;2022-09-09T08:32:07;28.77;;;18.40;;
32198;SDS011;19221;42.656;21.156;2022-09-09T08:34:32;32.97;;;20.85;;
32198;SDS011;19221;42.656;21.156;2022-09-09T08:36:58;25.92;;;15.60;;
32198;SDS011;19221;42.656;21.156;2022-09-09T08:39:24;19.73;;;14.68;;
32198;SDS011;19221;42.656;21.156;2022-09-09T08:52:09;22.80;;;14.52;;
32198;SDS011;19221;42.656;21.156;2022-09-09T08:57:05;22.67;;;15.10;;
32198;SDS011;19221;42.656;21.156;2022-09-09T08:59:36;30.10;;;18.95;;
32198;SDS011;19221;42.656;21.156;2022-09-09T09:11:58;24.48;;;14.70;;
32198;SDS011;19221;42.656;21.156;2022-09-09T09:14:26;21.17;;;15.07;;
32198;SDS011;19221;42.656;21.156;2022-09-09T09:16:55;23.63;;;15.82;;
32198;SDS011;19221;42.656;21.156;2022-09-09T09:19:22;26.50;;;17.75;;
32198;SDS011;19221;42.656;21.156;2022-09-09T09:25:00;27.65;;;18.75;;
32198;SDS011;19221;42.656;21.156;2022-09-09T09:27:32;34.20;;;21.40;;
32198;SDS011;19221;42.656;21.156;2022-09-09T09:29:59;29.17;;;19.85;;
32198;SDS011;19221;42.656;21.156;2022-09-09T09:32:26;27.13;;;18.85;;
32198;SDS011;19221;42.656;21.156;2022-09-09T09:34:55;27.83;;;19.45;;
32198;SDS011;19221;42.656;21.156;2022-09-09T09:37:29;28.10;;;20.23;;
32198;SDS011;19221;42.656;21.156;2022-09-09T09:39:55;23.45;;;17.15;;
32198;SDS011;19221;42.656;21.156;2022-09-09T09:42:21;27.73;;;18.30;;
32198;SDS011;19221;42.656;21.156;2022-09-09T09:44:47;27.80;;;19.33;;
32198;SDS011;19221;42.656;21.156;2022-09-09T09:47:14;27.42;;;17.27;;
32198;SDS011;19221;42.656;21.156;2022-09-09T09:49:53;33.25;;;22.30;;
32198;SDS011;19221;42.656;21.156;2022-09-09T09:52:23;37.65;;;24.88;;
32198;SDS011;19221;42.656;21.156;2022-09-09T09:54:49;26.27;;;17.10;;
32198;SDS011;19221;42.656;21.156;2022-09-09T09:57:15;32.78;;;20.50;;
32198;SDS011;19221;42.656;21.156;2022-09-09T09:59:42;19.50;;;13.57;;
32198;SDS011;19221;42.656;21.156;2022-09-09T10:02:24;26.10;;;18.30;;
32198;SDS011;19221;42.656;21.156;2022-09-09T10:05:00;26.08;;;17.77;;
32198;SDS011;19221;42.656;21.156;2022-09-09T10:07:26;30.13;;;19.35;;
32198;SDS011;19221;42.656;21.156;2022-09-09T10:09:53;30.95;;;19.48;;
32198;SDS011;19221;42.656;21.156;2022-09-09T10:20:51;27.15;;;17.42;;
32198;SDS011;19221;42.656;21.156;2022-09-09T10:23:44;30.63;;;18.85;;
32198;SDS011;19221;42.656;21.156;2022-09-09T10:36:25;21.08;;;15.20;;
32198;SDS011;19221;42.656;21.156;2022-09-09T10:38:57;24.65;;;15.05;;
32198;SDS011;19221;42.656;21.156;2022-09-09T10:55:26;24.85;;;14.40;;
32198;SDS011;19221;42.656;21.156;2022-09-09T10:57:55;22.17;;;13.23;;
32198;SDS011;19221;42.656;21.156;2022-09-09T11:00:30;24.08;;;15.25;;
32198;SDS011;19221;42.656;21.156;2022-09-09T11:02:57;24.23;;;14.45;;
32198;SDS011;19221;42.656;21.156;2022-09-09T11:05:26;26.67;;;14.82;;
32198;SDS011;19221;42.656;21.156;2022-09-09T11:07:55;25.80;;;16.15;;
32198;SDS011;19221;42.656;21.156;2022-09-09T11:12:50;21.33;;;13.13;;
32198;SDS011;19221;42.656;21.156;2022-09-09T11:17:44;21.33;;;14.55;;
32198;SDS011;19221;42.656;21.156;2022-09-09T11:20:13;19.95;;;12.18;;
32198;SDS011;19221;42.656;21.156;2022-09-09T11:22:42;28.70;;;13.43;;
32198;SDS011;19221;42.656;21.156;2022-09-09T11:25:23;17.15;;;12.90;;
32198;SDS011;19221;42.656;21.156;2022-09-09T11:30:22;23.77;;;14.85;;
32198;SDS011;19221;42.656;21.156;2022-09-09T11:35:31;27.30;;;16.40;;
32198;SDS011;19221;42.656;21.156;2022-09-09T11:40:34;20.48;;;13.77;;
32198;SDS011;19221;42.656;21.156;2022-09-09T11:43:01;26.63;;;14.95;;
32198;SDS011;19221;42.656;21.156;2022-09-09T11:45:29;23.20;;;15.18;;
32198;SDS011;19221;42.656;21.156;2022-09-09T11:47:56;23.92;;;14.45;;
32198;SDS011;19221;42.656;21.156;2022-09-09T11:52:48;26.20;;;14.27;;
32198;SDS011;19221;42.656;21.156;2022-09-09T11:55:28;21.20;;;14.27;;
32198;SDS011;19221;42.656;21.156;2022-09-09T11:58:05;31.02;;;16.83;;
32198;SDS011;19221;42.656;21.156;2022-09-09T12:00:35;17.83;;;13.00;;
32198;SDS011;19221;42.656;21.156;2022-09-09T12:03:03;23.20;;;15.68;;
32198;SDS011;19221;42.656;21.156;2022-09-09T12:06:08;20.95;;;13.90;;
32198;SDS011;19221;42.656;21.156;2022-09-09T12:08:23;19.80;;;13.43;;
32198;SDS011;19221;42.656;21.156;2022-09-09T12:10:58;21.60;;;16.02;;
32198;SDS011;19221;42.656;21.156;2022-09-09T12:13:29;24.60;;;16.77;;
32198;SDS011;19221;42.656;21.156;2022-09-09T12:16:00;25.67;;;16.08;;
32198;SDS011;19221;42.656;21.156;2022-09-09T12:18:40;23.93;;;16.30;;
32198;SDS011;19221;42.656;21.156;2022-09-09T12:31:07;21.05;;;13.65;;
32198;SDS011;19221;42.656;21.156;2022-09-09T12:33:37;22.23;;;16.17;;
32198;SDS011;19221;42.656;21.156;2022-09-09T12:36:04;18.33;;;13.48;;
32198;SDS011;19221;42.656;21.156;2022-09-09T12:38:34;19.15;;;14.20;;
32198;SDS011;19221;42.656;21.156;2022-09-09T12:41:01;21.95;;;15.07;;
32198;SDS011;19221;42.656;21.156;2022-09-09T12:43:27;21.70;;;12.70;;
32198;SDS011;19221;42.656;21.156;2022-09-09T12:45:54;17.38;;;11.27;;
32198;SDS011;19221;42.656;21.156;2022-09-09T12:48:25;25.35;;;17.42;;
32198;SDS011;19221;42.656;21.156;2022-09-09T12:50:52;20.83;;;13.50;;
32198;SDS011;19221;42.656;21.156;2022-09-09T12:53:22;23.80;;;15.05;;
32198;SDS011;19221;42.656;21.156;2022-09-09T12:55:50;22.80;;;14.30;;
32198;SDS011;19221;42.656;21.156;2022-09-09T12:58:17;25.10;;;16.38;;
32198;SDS011;19221;42.656;21.156;2022-09-09T13:00:54;25.05;;;16.02;;
32198;SDS011;19221;42.656;21.156;2022-09-09T13:03:23;27.88;;;15.57;;
32198;SDS011;19221;42.656;21.156;2022-09-09T13:05:50;25.95;;;15.75;;
32198;SDS011;19221;42.656;21.156;2022-09-09T13:08:16;21.23;;;13.18;;
32198;SDS011;19221;42.656;21.156;2022-09-09T13:11:20;19.88;;;13.38;;
32198;SDS011;19221;42.656;21.156;2022-09-09T13:13:39;20.27;;;12.82;;
32198;SDS011;19221;42.656;21.156;2022-09-09T13:16:06;20.85;;;13.60;;
32198;SDS011;19221;42.656;21.156;2022-09-09T13:18:34;20.95;;;12.68;;
32198;SDS011;19221;42.656;21.156;2022-09-09T13:21:01;25.98;;;14.63;;
32198;SDS011;19221;42.656;21.156;2022-09-09T13:23:28;24.02;;;14.40;;
32198;SDS011;19221;42.656;21.156;2022-09-09T13:25:55;25.17;;;15.00;;
32198;SDS011;19221;42.656;21.156;2022-09-09T13:28:22;24.45;;;12.98;;
32198;SDS011;19221;42.656;21.156;2022-09-09T13:31:05;24.85;;;14.65;;
32198;SDS011;19221;42.656;21.156;2022-09-09T13:33:33;29.92;;;14.07;;
32198;SDS011;19221;42.656;21.156;2022-09-09T13:36:00;20.08;;;12.40;;
32198;SDS011;19221;42.656;21.156;2022-09-09T13:38:28;21.38;;;13.40;;
32198;SDS011;19221;42.656;21.156;2022-09-09T13:40:59;23.77;;;13.18;;
32198;SDS011;19221;42.656;21.156;2022-09-09T13:43:27;18.58;;;12.23;;
32198;SDS011;19221;42.656;21.156;2022-09-09T13:46:01;18.63;;;11.45;;
32198;SDS011;19221;42.656;21.156;2022-09-09T13:48:27;23.52;;;14.50;;
32198;SDS011;19221;42.656;21.156;2022-09-09T13:50:57;20.02;;;12.02;;
32198;SDS011;19221;42.656;21.156;2022-09-09T13:53:23;18.70;;;11.40;;
32198;SDS011;19221;42.656;21.156;2022-09-09T13:55:49;19.80;;;11.35;;
32198;SDS011;19221;42.656;21.156;2022-09-09T13:58:16;17.38;;;10.88;;
32198;SDS011;19221;42.656;21.156;2022-09-09T14:00:44;17.15;;;10.40;;
32198;SDS011;19221;42.656;21.156;2022-09-09T14:03:10;21.48;;;13.23;;
32198;SDS011;19221;42.656;21.156;2022-09-09T14:05:36;19.35;;;13.43;;
32198;SDS011;19221;42.656;21.156;2022-09-09T14:08:06;15.68;;;11.68;;
32198;SDS011;19221;42.656;21.156;2022-09-09T14:10:33;20.60;;;12.50;;
32198;SDS011;19221;42.656;21.156;2022-09-09T14:13:01;19.63;;;12.85;;
32198;SDS011;19221;42.656;21.156;2022-09-09T14:15:26;21.85;;;13.32;;
32198;SDS011;19221;42.656;21.156;2022-09-09T14:17:52;19.48;;;11.25;;
32198;SDS011;19221;42.656;21.156;2022-09-09T14:20:18;14.05;;;10.35;;
32198;SDS011;19221;42.656;21.156;2022-09-09T14:22:44;18.42;;;12.32;;
32198;SDS011;19221;42.656;21.156;2022-09-09T14:25:10;19.85;;;13.07;;
32198;SDS011;19221;42.656;21.156;2022-09-09T14:27:39;15.75;;;10.32;;
32198;SDS011;19221;42.656;21.156;2022-09-09T14:30:05;16.17;;;11.52;;
32198;SDS011;19221;42.656;21.156;2022-09-09T14:32:31;26.23;;;15.25;;
32198;SDS011;19221;42.656;21.156;2022-09-09T14:34:56;27.38;;;15.52;;
32198;SDS011;19221;42.656;21.156;2022-09-09T14:37:22;37.78;;;17.38;;
32198;SDS011;19221;42.656;21.156;2022-09-09T14:39:48;30.42;;;15.57;;
32198;SDS011;19221;42.656;21.156;2022-09-09T14:42:16;23.80;;;13.50;;
32198;SDS011;19221;42.656;21.156;2022-09-09T14:44:41;24.02;;;15.02;;
32198;SDS011;19221;42.656;21.156;2022-09-09T14:47:07;20.38;;;13.00;;
32198;SDS011;19221;42.656;21.156;2022-09-09T14:49:34;20.75;;;11.73;;
32198;SDS011;19221;42.656;21.156;2022-09-09T14:51:59;23.90;;;13.43;;
32198;SDS011;19221;42.656;21.156;2022-09-09T14:54:25;21.27;;;12.73;;
32198;SDS011;19221;42.656;21.156;2022-09-09T14:56:51;21.33;;;13.80;;
32198;SDS011;19221;42.656;21.156;2022-09-09T14:59:17;24.90;;;13.57;;
32198;SDS011;19221;42.656;21.156;2022-09-09T15:01:42;22.00;;;12.02;;
32198;SDS011;19221;42.656;21.156;2022-09-09T15:04:10;31.40;;;14.05;;
32198;SDS011;19221;42.656;21.156;2022-09-09T15:06:37;27.48;;;15.02;;
32198;SDS011;19221;42.656;21.156;2022-09-09T15:09:04;23.85;;;13.77;;
32198;SDS011;19221;42.656;21.156;2022-09-09T15:11:31;33.28;;;25.42;;
32198;SDS011;19221;42.656;21.156;2022-09-09T15:13:59;31.42;;;21.75;;
32198;SDS011;19221;42.656;21.156;2022-09-09T15:16:26;27.83;;;19.33;;
32198;SDS011;19221;42.656;21.156;2022-09-09T15:18:53;21.65;;;12.05;;
32198;SDS011;19221;42.656;21.156;2022-09-09T15:21:20;15.98;;;11.48;;
32198;SDS011;19221;42.656;21.156;2022-09-09T15:23:46;23.73;;;11.95;;
32198;SDS011;19221;42.656;21.156;2022-09-09T15:26:12;22.95;;;12.35;;
32198;SDS011;19221;42.656;21.156;2022-09-09T15:28:39;18.02;;;11.38;;
32198;SDS011;19221;42.656;21.156;2022-09-09T15:31:06;20.13;;;12.18;;
32198;SDS011;19221;42.656;21.156;2022-09-09T15:33:32;28.83;;;19.83;;
32198;SDS011;19221;42.656;21.156;2022-09-09T15:35:59;26.05;;;18.92;;
32198;SDS011;19221;42.656;21.156;2022-09-09T15:38:24;27.02;;;17.40;;
32198;SDS011;19221;42.656;21.156;2022-09-09T15:40:56;25.73;;;16.88;;
32198;SDS011;19221;42.656;21.156;2022-09-09T15:43:22;33.55;;;18.90;;
32198;SDS011;19221;42.656;21.156;2022-09-09T15:45:49;22.40;;;11.65;;
32198;SDS011;19221;42.656;21.156;2022-09-09T15:48:18;26.43;;;16.73;;
32198;SDS011;19221;42.656;21.156;2022-09-09T15:50:44;22.30;;;12.95;;
32198;SDS011;19221;42.656;21.156;2022-09-09T15:53:10;17.27;;;13.00;;
32198;SDS011;19221;42.656;21.156;2022-09-09T15:55:36;27.77;;;15.18;;
32198;SDS011;19221;42.656;21.156;2022-09-09T15:58:02;26.50;;;14.35;;
32198;SDS011;19221;42.656;21.156;2022-09-09T16:00:27;35.28;;;15.75;;
32198;SDS011;19221;42.656;21.156;2022-09-09T16:02:54;31.63;;;15.52;;
32198;SDS011;19221;42.656;21.156;2022-09-09T16:05:20;34.97;;;15.10;;
32198;SDS011;19221;42.656;21.156;2022-09-09T16:07:46;28.15;;;17.88;;
32198;SDS011;19221;42.656;21.156;2022-09-09T16:10:13;29.42;;;16.75;;
32198;SDS011;19221;42.656;21.156;2022-09-09T16:12:39;33.38;;;15.65;;
32198;SDS011;19221;42.656;21.156;2022-09-09T16:15:05;26.67;;;15.63;;
32198;SDS011;19221;42.656;21.156;2022-09-09T16:17:31;33.45;;;16.25;;
32198;SDS011;19221;42.656;21.156;2022-09-09T16:20:02;26.88;;;13.98;;
32198;SDS011;19221;42.656;21.156;2022-09-09T16:22:28;28.30;;;15.60;;
32198;SDS011;19221;42.656;21.156;2022-09-09T16:24:54;28.20;;;16.58;;
32198;SDS011;19221;42.656;21.156;2022-09-09T16:27:19;22.08;;;14.13;;